createdAt,value
2022-08-24T00:01:05.915Z,25.40
2022-08-24T00:06:12.180Z,25.40
2022-08-24T00:11:14.703Z,25.40
2022-08-24T00:16:18.963Z,25.40
2022-08-24T00:21:22.146Z,25.40
2022-08-24T00:26:29.044Z,25.40
2022-08-24T00:31:35.529Z,25.40
2022-08-24T00:36:37.929Z,25.40
2022-08-24T00:41:43.685Z,25.40
2022-08-24T00:47:00.419Z,25.40
2022-08-24T00:52:11.103Z,25.40
2022-08-24T00:57:15.548Z,25.40
2022-08-24T01:02:23.333Z,25.30
2022-08-24T01:07:28.727Z,25.30
2022-08-24T01:12:33.989Z,25.40
2022-08-24T01:17:55.725Z,25.30
2022-08-24T01:23:16.130Z,25.30
2022-08-24T01:28:25.180Z,25.30
2022-08-24T01:33:31.663Z,25.30
2022-08-24T01:38:34.437Z,25.30
2022-08-24T01:43:37.424Z,25.30
2022-08-24T01:48:42.331Z,25.30
2022-08-24T01:53:44.831Z,25.30
2022-08-24T01:58:49.065Z,25.30
2022-08-24T02:03:51.900Z,25.30
2022-08-24T02:08:55.599Z,25.20
2022-08-24T02:13:58.193Z,25.30
2022-08-24T02:19:02.941Z,25.30
2022-08-24T02:24:05.646Z,25.30
2022-08-24T02:29:07.836Z,25.30
2022-08-24T02:34:10.231Z,25.30
2022-08-24T02:39:12.728Z,25.30
2022-08-24T02:44:15.635Z,25.30
2022-08-24T02:49:18.951Z,25.30
2022-08-24T02:54:21.356Z,25.20
2022-08-24T02:59:25.589Z,25.20
2022-08-24T03:04:28.405Z,25.20
2022-08-24T03:09:30.986Z,25.20
2022-08-24T03:14:35.649Z,25.20
2022-08-24T03:19:38.029Z,25.20
2022-08-24T03:24:41.556Z,25.20
2022-08-24T03:29:43.858Z,25.20
2022-08-24T03:34:47.136Z,25.20
2022-08-24T03:39:50.889Z,25.10
2022-08-24T03:44:54.112Z,25.20
2022-08-24T03:49:56.992Z,25.10
2022-08-24T03:54:59.403Z,25.20
2022-08-24T04:00:04.678Z,25.10
2022-08-24T04:05:16.779Z,25.10
2022-08-24T04:10:18.967Z,25.10
2022-08-24T04:15:24.128Z,25.10
2022-08-24T04:20:28.367Z,25.20
2022-08-24T04:25:31.986Z,25.10
2022-08-24T04:30:34.318Z,25.10
2022-08-24T04:35:47.591Z,25.10
2022-08-24T04:40:50.531Z,25.10
2022-08-24T04:45:53.069Z,25.10
2022-08-24T04:51:00.852Z,25.10
2022-08-24T04:56:09.895Z,25.10
2022-08-24T05:01:16.011Z,25.10
2022-08-24T05:06:20.529Z,25.10
2022-08-24T05:11:22.915Z,25.10
2022-08-24T05:16:26.066Z,25.10
2022-08-24T05:21:30.802Z,25.10
2022-08-24T05:26:33.579Z,25.10
2022-08-24T05:31:36.121Z,25.10
2022-08-24T05:36:42.358Z,25.10
2022-08-24T05:41:49.364Z,25.10
2022-08-24T05:46:59.573Z,25.10
2022-08-24T05:52:02.443Z,25.10
2022-08-24T05:57:06.066Z,25.00
2022-08-24T06:02:13.652Z,25.10
2022-08-24T06:07:16.789Z,25.10
2022-08-24T06:12:23.479Z,25.10
2022-08-24T06:17:25.993Z,25.10
2022-08-24T06:22:28.374Z,25.10
2022-08-24T06:27:31.284Z,25.10
2022-08-24T06:32:33.986Z,25.10
2022-08-24T06:37:36.480Z,25.10
2022-08-24T06:42:38.775Z,25.00
2022-08-24T06:47:51.811Z,25.10
2022-08-24T06:52:54.619Z,25.00
2022-08-24T06:58:02.303Z,25.10
2022-08-24T07:03:05.483Z,25.10
2022-08-24T07:08:08.161Z,25.10
2022-08-24T07:13:17.239Z,25.10
2022-08-24T07:18:22.367Z,25.10
2022-08-24T07:23:41.725Z,25.20
2022-08-24T07:28:46.278Z,25.20
2022-08-24T07:33:56.535Z,25.10
2022-08-24T07:39:09.316Z,25.20
2022-08-24T07:44:15.994Z,25.20
2022-08-24T07:49:33.139Z,25.20
2022-08-24T07:54:41.031Z,25.20
2022-08-24T07:59:47.163Z,25.20
2022-08-24T08:04:52.267Z,25.20
2022-08-24T08:10:16.334Z,25.20
2022-08-24T08:15:34.051Z,25.20
2022-08-24T08:20:47.873Z,25.20
2022-08-24T08:25:57.826Z,25.20
2022-08-24T08:31:20.951Z,25.20
2022-08-24T08:36:27.847Z,25.20
2022-08-24T08:41:48.355Z,25.20
2022-08-24T08:47:23.058Z,25.20
2022-08-24T08:53:03.488Z,25.30
2022-08-24T08:58:34.845Z,25.30
2022-08-24T09:04:28.653Z,25.30
2022-08-24T09:10:08.259Z,25.20
2022-08-24T09:15:48.717Z,25.30
2022-08-24T09:20:57.151Z,25.20
2022-08-24T09:26:27.279Z,25.20
2022-08-24T09:32:03.311Z,25.20
2022-08-24T09:37:32.039Z,25.20
2022-08-24T09:42:56.434Z,25.20
2022-08-24T09:48:42.581Z,25.20
2022-08-24T09:54:26.636Z,25.20
2022-08-24T10:00:03.972Z,25.20
2022-08-24T10:05:41.976Z,25.30
2022-08-24T10:10:50.818Z,25.30
2022-08-24T10:16:21.397Z,25.30
2022-08-24T10:21:56.492Z,25.40
2022-08-24T10:27:10.071Z,25.40
2022-08-24T10:32:42.941Z,25.40
2022-08-24T10:38:21.348Z,25.40
2022-08-24T10:43:35.659Z,25.40
2022-08-24T10:48:57.865Z,25.40
2022-08-24T10:54:04.352Z,25.40
2022-08-24T10:59:16.978Z,25.40
2022-08-24T11:04:28.280Z,25.40
2022-08-24T11:09:53.799Z,25.40
2022-08-24T11:15:01.696Z,25.40
2022-08-24T11:20:32.054Z,25.40
2022-08-24T11:25:40.411Z,25.40
2022-08-24T11:30:42.991Z,25.50
2022-08-24T11:35:48.242Z,25.50
2022-08-24T11:41:04.349Z,25.50
2022-08-24T11:46:20.007Z,25.50
2022-08-24T11:51:29.912Z,25.50
2022-08-24T11:56:57.688Z,25.50
2022-08-24T12:02:07.872Z,25.60
2022-08-24T12:07:34.408Z,25.60
2022-08-24T12:12:46.419Z,25.60
2022-08-24T12:18:04.782Z,25.70
2022-08-24T12:24:02.844Z,25.70
2022-08-24T12:29:18.030Z,25.70
2022-08-24T12:34:27.220Z,25.70
2022-08-24T12:39:47.206Z,25.70
2022-08-24T12:44:52.743Z,25.70
2022-08-24T12:50:03.340Z,25.70
2022-08-24T12:55:52.265Z,25.70
2022-08-24T13:00:57.136Z,25.70
2022-08-24T13:06:05.056Z,25.80
2022-08-24T13:11:12.673Z,25.80
2022-08-24T13:16:45.356Z,25.80
2022-08-24T13:21:51.820Z,25.80
2022-08-24T13:27:26.326Z,25.90
2022-08-24T13:32:35.376Z,26.00
2022-08-24T13:38:21.789Z,26.00
2022-08-24T13:43:40.445Z,26.00
2022-08-24T13:49:13.064Z,26.10
2022-08-24T13:54:38.192Z,26.10
2022-08-24T13:59:47.596Z,26.10
2022-08-24T14:05:06.110Z,26.20
2022-08-24T14:10:40.935Z,26.20
2022-08-24T14:16:17.142Z,26.30
2022-08-24T14:21:27.247Z,26.30
2022-08-24T14:26:52.998Z,26.20
2022-08-24T14:32:12.313Z,26.10
2022-08-24T14:37:18.991Z,26.10
2022-08-24T14:42:57.421Z,26.00
2022-08-24T14:48:20.591Z,26.00
2022-08-24T14:53:39.872Z,26.00
2022-08-24T14:59:07.473Z,25.90
2022-08-24T15:04:38.113Z,25.80
2022-08-24T15:09:44.289Z,25.90
2022-08-24T15:14:53.609Z,25.90
2022-08-24T15:20:19.534Z,25.70
2022-08-24T15:25:53.233Z,25.80
2022-08-24T15:31:07.471Z,25.80
2022-08-24T15:36:16.637Z,25.90
2022-08-24T15:41:32.845Z,25.90
2022-08-24T15:46:40.522Z,25.90
2022-08-24T15:51:42.957Z,25.90
2022-08-24T15:56:51.593Z,25.90
2022-08-24T16:02:27.604Z,25.90
2022-08-24T16:07:53.079Z,26.00
2022-08-24T16:13:30.680Z,26.00
2022-08-24T16:18:49.444Z,26.00
2022-08-24T16:24:02.491Z,26.00
2022-08-24T16:29:04.878Z,26.00
2022-08-24T16:34:22.928Z,26.00
2022-08-24T16:39:28.701Z,26.00
2022-08-24T16:44:42.966Z,26.00
2022-08-24T16:49:46.195Z,26.00
2022-08-24T16:55:05.417Z,25.90
2022-08-24T17:00:22.985Z,25.90
2022-08-24T17:11:42.337Z,25.80
2022-08-24T17:17:23.069Z,25.80
2022-08-24T17:22:48.790Z,25.80
2022-08-24T17:28:09.599Z,25.90
2022-08-24T17:33:28.178Z,25.90
2022-08-24T17:38:55.592Z,25.90
2022-08-24T17:44:23.825Z,25.90
2022-08-24T17:49:31.246Z,25.90
2022-08-24T17:54:36.694Z,25.90
2022-08-24T17:59:42.053Z,25.80
2022-08-24T18:04:44.478Z,25.90
2022-08-24T18:09:54.748Z,25.80
2022-08-24T18:14:58.658Z,25.90
2022-08-24T18:20:01.870Z,25.90
2022-08-24T18:25:06.515Z,25.80
2022-08-24T18:30:30.356Z,25.80
2022-08-24T18:35:36.686Z,25.90
2022-08-24T18:40:52.215Z,25.90
2022-08-24T18:46:00.318Z,25.90
2022-08-24T18:51:06.914Z,25.90
2022-08-24T18:56:12.685Z,25.90
2022-08-24T19:01:15.353Z,25.90
2022-08-24T19:06:18.075Z,25.90
2022-08-24T19:11:25.562Z,25.90
2022-08-24T19:16:30.052Z,25.80
2022-08-24T19:21:44.960Z,25.80
2022-08-24T19:26:48.730Z,25.90
2022-08-24T19:31:52.960Z,25.90
2022-08-24T19:36:56.827Z,25.80
2022-08-24T19:42:00.010Z,25.90
2022-08-24T19:47:06.500Z,25.90
2022-08-24T19:52:10.788Z,25.80
2022-08-24T19:57:41.686Z,25.80
2022-08-24T20:02:47.497Z,25.80
2022-08-24T20:07:51.636Z,25.70
2022-08-24T20:12:54.497Z,25.70
2022-08-24T20:17:59.252Z,25.70
2022-08-24T20:23:06.093Z,25.70
2022-08-24T20:33:36.007Z,25.70
2022-08-24T20:38:44.682Z,25.70
2022-08-24T20:43:48.885Z,25.70
2022-08-24T20:48:55.664Z,25.70
2022-08-24T20:53:59.094Z,25.70
2022-08-24T20:59:04.883Z,25.70
2022-08-24T21:04:07.150Z,25.60
2022-08-24T21:09:14.020Z,25.60
2022-08-24T21:14:19.623Z,25.60
2022-08-24T21:19:23.774Z,25.60
2022-08-24T21:24:26.051Z,25.50
2022-08-24T21:29:28.446Z,25.60
2022-08-24T21:34:42.713Z,25.60
2022-08-24T21:39:48.277Z,25.60
2022-08-24T21:44:50.879Z,25.60
2022-08-24T21:49:55.525Z,25.60
2022-08-24T21:54:59.049Z,25.60
2022-08-24T22:00:04.306Z,25.60
2022-08-24T22:05:07.702Z,25.60
2022-08-24T22:10:11.952Z,25.60
2022-08-24T22:15:16.221Z,25.60
2022-08-24T22:20:23.567Z,25.60
2022-08-24T22:25:26.928Z,25.60
2022-08-24T22:30:33.744Z,25.60
2022-08-24T22:35:44.752Z,25.60
2022-08-24T22:40:59.477Z,25.60
2022-08-24T22:46:02.870Z,25.60
2022-08-24T22:51:12.874Z,25.60
2022-08-24T22:56:30.425Z,25.60
2022-08-24T23:01:36.646Z,25.60
2022-08-24T23:06:39.505Z,25.60
2022-08-24T23:11:42.411Z,25.50
2022-08-24T23:16:48.903Z,25.60
2022-08-24T23:21:53.318Z,25.60
2022-08-24T23:26:55.534Z,25.50
2022-08-24T23:31:58.448Z,25.50
2022-08-24T23:37:01.037Z,25.50
2022-08-24T23:42:03.640Z,25.60
2022-08-24T23:47:07.466Z,25.50
2022-08-24T23:52:25.905Z,25.50
2022-08-24T23:57:30.882Z,25.50
